sensor_id;sensor_type;location;lat;lon;timestamp;temperature;humidity
67572;SHT31;54397;47.506;19.158;2024-03-06T00:02:29;11.69;67.79
67572;SHT31;54397;47.506;19.158;2024-03-06T00:05:51;12.03;66.02
67572;SHT31;54397;47.506;19.158;2024-03-06T00:09:13;12.14;65.94
67572;SHT31;54397;47.506;19.158;2024-03-06T00:12:34;12.25;65.44
67572;SHT31;54397;47.506;19.158;2024-03-06T00:15:56;12.18;65.45
67572;SHT31;54397;47.506;19.158;2024-03-06T00:19:18;11.80;66.70
67572;SHT31;54397;47.506;19.158;2024-03-06T00:22:41;11.97;65.86
67572;SHT31;54397;47.506;19.158;2024-03-06T00:26:03;11.40;67.81
67572;SHT31;54397;47.506;19.158;2024-03-06T00:29:25;11.08;68.96
67572;SHT31;54397;47.506;19.158;2024-03-06T00:32:52;11.55;66.75
67572;SHT31;54397;47.506;19.158;2024-03-06T00:36:14;11.65;66.15
67572;SHT31;54397;47.506;19.158;2024-03-06T00:39:40;11.86;65.54
67572;SHT31;54397;47.506;19.158;2024-03-06T00:43:04;11.42;66.81
67572;SHT31;54397;47.506;19.158;2024-03-06T00:46:27;11.12;67.69
67572;SHT31;54397;47.506;19.158;2024-03-06T00:49:52;11.40;66.87
67572;SHT31;54397;47.506;19.158;2024-03-06T00:53:18;11.45;66.12
67572;SHT31;54397;47.506;19.158;2024-03-06T00:56:40;11.49;66.11
67572;SHT31;54397;47.506;19.158;2024-03-06T01:00:03;11.17;67.07
67572;SHT31;54397;47.506;19.158;2024-03-06T01:03:38;10.96;67.95
67572;SHT31;54397;47.506;19.158;2024-03-06T01:07:00;11.21;66.90
67572;SHT31;54397;47.506;19.158;2024-03-06T01:10:22;11.29;66.33
67572;SHT31;54397;47.506;19.158;2024-03-06T01:13:46;11.01;66.98
67572;SHT31;54397;47.506;19.158;2024-03-06T01:17:07;10.97;67.53
67572;SHT31;54397;47.506;19.158;2024-03-06T01:20:31;11.25;66.30
67572;SHT31;54397;47.506;19.158;2024-03-06T01:23:56;11.31;66.02
67572;SHT31;54397;47.506;19.158;2024-03-06T01:27:17;11.19;66.13
67572;SHT31;54397;47.506;19.158;2024-03-06T01:30:44;10.79;67.50
67572;SHT31;54397;47.506;19.158;2024-03-06T01:34:08;10.35;68.72
67572;SHT31;54397;47.506;19.158;2024-03-06T01:37:30;10.56;68.15
67572;SHT31;54397;47.506;19.158;2024-03-06T01:40:52;10.23;68.54
67572;SHT31;54397;47.506;19.158;2024-03-06T01:44:17;10.09;68.59
67572;SHT31;54397;47.506;19.158;2024-03-06T01:47:39;10.26;68.30
67572;SHT31;54397;47.506;19.158;2024-03-06T01:51:03;10.61;66.79
67572;SHT31;54397;47.506;19.158;2024-03-06T01:54:26;10.31;67.75
67572;SHT31;54397;47.506;19.158;2024-03-06T01:57:48;10.25;68.11
67572;SHT31;54397;47.506;19.158;2024-03-06T02:01:11;10.48;66.58
67572;SHT31;54397;47.506;19.158;2024-03-06T02:04:33;10.42;66.80
67572;SHT31;54397;47.506;19.158;2024-03-06T02:07:59;10.49;66.69
67572;SHT31;54397;47.506;19.158;2024-03-06T02:11:21;10.59;66.13
67572;SHT31;54397;47.506;19.158;2024-03-06T02:14:45;10.52;65.83
67572;SHT31;54397;47.506;19.158;2024-03-06T02:18:09;10.14;67.12
67572;SHT31;54397;47.506;19.158;2024-03-06T02:21:31;10.19;66.36
67572;SHT31;54397;47.506;19.158;2024-03-06T02:24:53;10.32;65.78
67572;SHT31;54397;47.506;19.158;2024-03-06T02:28:17;10.23;65.87
67572;SHT31;54397;47.506;19.158;2024-03-06T02:31:39;10.15;65.80
67572;SHT31;54397;47.506;19.158;2024-03-06T02:35:03;9.94;66.53
67572;SHT31;54397;47.506;19.158;2024-03-06T02:38:32;10.05;66.01
67572;SHT31;54397;47.506;19.158;2024-03-06T02:41:54;9.97;65.90
67572;SHT31;54397;47.506;19.158;2024-03-06T02:45:18;9.63;67.83
67572;SHT31;54397;47.506;19.158;2024-03-06T02:48:42;9.37;68.59
67572;SHT31;54397;47.506;19.158;2024-03-06T02:52:06;9.33;68.58
67572;SHT31;54397;47.506;19.158;2024-03-06T02:55:28;9.37;68.50
67572;SHT31;54397;47.506;19.158;2024-03-06T02:58:55;9.58;67.40
67572;SHT31;54397;47.506;19.158;2024-03-06T03:02:19;9.54;67.12
67572;SHT31;54397;47.506;19.158;2024-03-06T03:05:43;9.74;66.35
67572;SHT31;54397;47.506;19.158;2024-03-06T03:09:07;9.33;68.42
67572;SHT31;54397;47.506;19.158;2024-03-06T03:12:28;9.54;68.14
67572;SHT31;54397;47.506;19.158;2024-03-06T03:15:52;9.35;68.37
67572;SHT31;54397;47.506;19.158;2024-03-06T03:19:16;8.95;69.11
67572;SHT31;54397;47.506;19.158;2024-03-06T03:22:40;8.92;69.83
67572;SHT31;54397;47.506;19.158;2024-03-06T03:26:02;9.14;68.85
67572;SHT31;54397;47.506;19.158;2024-03-06T03:29:27;9.51;66.88
67572;SHT31;54397;47.506;19.158;2024-03-06T03:32:49;9.37;67.35
67572;SHT31;54397;47.506;19.158;2024-03-06T03:36:13;9.39;67.21
67572;SHT31;54397;47.506;19.158;2024-03-06T03:39:37;9.63;66.23
67572;SHT31;54397;47.506;19.158;2024-03-06T03:42:59;9.51;66.40
67572;SHT31;54397;47.506;19.158;2024-03-06T03:46:27;9.42;66.92
67572;SHT31;54397;47.506;19.158;2024-03-06T03:49:49;9.71;66.64
67572;SHT31;54397;47.506;19.158;2024-03-06T03:53:27;9.73;67.06
67572;SHT31;54397;47.506;19.158;2024-03-06T03:56:53;9.83;67.11
67572;SHT31;54397;47.506;19.158;2024-03-06T04:00:15;9.77;66.95
67572;SHT31;54397;47.506;19.158;2024-03-06T04:03:38;9.74;66.56
67572;SHT31;54397;47.506;19.158;2024-03-06T04:07:00;9.77;65.58
67572;SHT31;54397;47.506;19.158;2024-03-06T04:10:23;9.35;67.24
67572;SHT31;54397;47.506;19.158;2024-03-06T04:13:47;9.43;67.20
67572;SHT31;54397;47.506;19.158;2024-03-06T04:17:08;9.44;66.95
67572;SHT31;54397;47.506;19.158;2024-03-06T04:20:32;9.23;67.47
67572;SHT31;54397;47.506;19.158;2024-03-06T04:23:54;9.42;67.31
67572;SHT31;54397;47.506;19.158;2024-03-06T04:27:20;9.58;67.05
67572;SHT31;54397;47.506;19.158;2024-03-06T04:30:44;9.56;66.74
67572;SHT31;54397;47.506;19.158;2024-03-06T04:34:11;9.32;67.03
67572;SHT31;54397;47.506;19.158;2024-03-06T04:37:32;9.30;66.23
67572;SHT31;54397;47.506;19.158;2024-03-06T04:40:55;8.97;67.19
67572;SHT31;54397;47.506;19.158;2024-03-06T04:44:18;9.25;66.44
67572;SHT31;54397;47.506;19.158;2024-03-06T04:47:43;9.27;66.61
67572;SHT31;54397;47.506;19.158;2024-03-06T04:51:05;9.35;66.06
67572;SHT31;54397;47.506;19.158;2024-03-06T04:54:29;9.01;67.49
67572;SHT31;54397;47.506;19.158;2024-03-06T04:57:52;9.16;68.02
67572;SHT31;54397;47.506;19.158;2024-03-06T05:01:17;9.29;67.07
67572;SHT31;54397;47.506;19.158;2024-03-06T05:04:41;8.95;68.74
67572;SHT31;54397;47.506;19.158;2024-03-06T05:08:23;9.05;67.71
67572;SHT31;54397;47.506;19.158;2024-03-06T05:12:05;9.22;66.84
67572;SHT31;54397;47.506;19.158;2024-03-06T05:15:47;9.20;66.63
67572;SHT31;54397;47.506;19.158;2024-03-06T05:19:25;8.89;67.96
67572;SHT31;54397;47.506;19.158;2024-03-06T05:23:10;8.74;69.08
67572;SHT31;54397;47.506;19.158;2024-03-06T05:26:49;9.11;67.94
67572;SHT31;54397;47.506;19.158;2024-03-06T05:30:30;8.93;68.10
67572;SHT31;54397;47.506;19.158;2024-03-06T05:34:11;8.97;68.19
67572;SHT31;54397;47.506;19.158;2024-03-06T05:37:52;8.97;68.53
67572;SHT31;54397;47.506;19.158;2024-03-06T05:41:36;9.12;68.40
67572;SHT31;54397;47.506;19.158;2024-03-06T05:45:18;9.11;68.23
67572;SHT31;54397;47.506;19.158;2024-03-06T05:48:57;9.11;68.08
67572;SHT31;54397;47.506;19.158;2024-03-06T05:52:39;9.30;67.50
67572;SHT31;54397;47.506;19.158;2024-03-06T05:56:23;9.40;66.80
67572;SHT31;54397;47.506;19.158;2024-03-06T06:00:05;9.39;66.76
67572;SHT31;54397;47.506;19.158;2024-03-06T06:03:35;9.48;66.42
67572;SHT31;54397;47.506;19.158;2024-03-06T06:06:57;9.33;67.56
67572;SHT31;54397;47.506;19.158;2024-03-06T06:10:21;9.48;67.77
67572;SHT31;54397;47.506;19.158;2024-03-06T06:13:45;9.64;68.03
67572;SHT31;54397;47.506;19.158;2024-03-06T06:17:07;9.66;68.39
67572;SHT31;54397;47.506;19.158;2024-03-06T06:20:28;9.77;68.77
67572;SHT31;54397;47.506;19.158;2024-03-06T06:23:50;9.81;69.29
67572;SHT31;54397;47.506;19.158;2024-03-06T06:27:12;9.88;69.68
67572;SHT31;54397;47.506;19.158;2024-03-06T06:30:36;9.98;69.68
67572;SHT31;54397;47.506;19.158;2024-03-06T06:33:57;10.16;69.27
67572;SHT31;54397;47.506;19.158;2024-03-06T06:37:19;10.19;69.93
67572;SHT31;54397;47.506;19.158;2024-03-06T06:40:41;10.06;70.75
67572;SHT31;54397;47.506;19.158;2024-03-06T06:44:05;10.16;71.07
67572;SHT31;54397;47.506;19.158;2024-03-06T06:47:26;10.23;70.96
67572;SHT31;54397;47.506;19.158;2024-03-06T06:50:53;10.19;71.22
67572;SHT31;54397;47.506;19.158;2024-03-06T06:54:15;10.31;70.83
67572;SHT31;54397;47.506;19.158;2024-03-06T06:57:39;10.39;70.82
67572;SHT31;54397;47.506;19.158;2024-03-06T07:01:06;10.52;69.88
67572;SHT31;54397;47.506;19.158;2024-03-06T07:04:27;10.64;69.65
67572;SHT31;54397;47.506;19.158;2024-03-06T07:07:51;10.80;69.48
67572;SHT31;54397;47.506;19.158;2024-03-06T07:11:19;10.91;69.56
67572;SHT31;54397;47.506;19.158;2024-03-06T07:14:43;11.07;69.32
67572;SHT31;54397;47.506;19.158;2024-03-06T07:18:07;11.10;69.35
67572;SHT31;54397;47.506;19.158;2024-03-06T07:21:31;11.36;68.58
67572;SHT31;54397;47.506;19.158;2024-03-06T07:24:53;11.48;67.96
67572;SHT31;54397;47.506;19.158;2024-03-06T07:28:14;11.79;68.08
67572;SHT31;54397;47.506;19.158;2024-03-06T07:31:36;11.83;68.01
67572;SHT31;54397;47.506;19.158;2024-03-06T07:34:58;12.45;67.82
67572;SHT31;54397;47.506;19.158;2024-03-06T07:38:22;12.41;66.12
67572;SHT31;54397;47.506;19.158;2024-03-06T07:41:44;12.40;66.04
67572;SHT31;54397;47.506;19.158;2024-03-06T07:45:09;12.30;66.45
67572;SHT31;54397;47.506;19.158;2024-03-06T07:48:31;12.27;67.02
67572;SHT31;54397;47.506;19.158;2024-03-06T07:51:52;12.38;66.90
67572;SHT31;54397;47.506;19.158;2024-03-06T07:55:18;12.80;66.05
67572;SHT31;54397;47.506;19.158;2024-03-06T07:58:43;13.03;65.76
67572;SHT31;54397;47.506;19.158;2024-03-06T08:02:05;13.38;65.08
67572;SHT31;54397;47.506;19.158;2024-03-06T08:05:29;13.30;64.78
67572;SHT31;54397;47.506;19.158;2024-03-06T08:08:53;13.53;64.75
67572;SHT31;54397;47.506;19.158;2024-03-06T08:12:20;13.54;64.59
67572;SHT31;54397;47.506;19.158;2024-03-06T08:15:41;13.58;64.26
67572;SHT31;54397;47.506;19.158;2024-03-06T08:19:06;13.27;64.65
67572;SHT31;54397;47.506;19.158;2024-03-06T08:22:28;13.44;64.77
67572;SHT31;54397;47.506;19.158;2024-03-06T08:25:49;13.48;64.65
67572;SHT31;54397;47.506;19.158;2024-03-06T08:29:16;14.01;63.58
67572;SHT31;54397;47.506;19.158;2024-03-06T08:32:38;14.47;62.14
67572;SHT31;54397;47.506;19.158;2024-03-06T08:36:03;14.77;61.62
67572;SHT31;54397;47.506;19.158;2024-03-06T08:39:24;15.06;61.42
67572;SHT31;54397;47.506;19.158;2024-03-06T08:42:47;15.10;59.70
67572;SHT31;54397;47.506;19.158;2024-03-06T08:46:10;14.78;61.37
67572;SHT31;54397;47.506;19.158;2024-03-06T08:49:34;14.72;61.14
67572;SHT31;54397;47.506;19.158;2024-03-06T08:52:56;14.56;61.23
67572;SHT31;54397;47.506;19.158;2024-03-06T08:56:20;14.36;61.74
67572;SHT31;54397;47.506;19.158;2024-03-06T08:59:42;14.24;61.47
67572;SHT31;54397;47.506;19.158;2024-03-06T09:03:04;14.89;60.38
67572;SHT31;54397;47.506;19.158;2024-03-06T09:06:26;15.09;60.00
67572;SHT31;54397;47.506;19.158;2024-03-06T09:09:53;15.36;59.08
67572;SHT31;54397;47.506;19.158;2024-03-06T09:13:14;15.73;58.50
67572;SHT31;54397;47.506;19.158;2024-03-06T09:16:38;15.93;57.18
67572;SHT31;54397;47.506;19.158;2024-03-06T09:20:02;16.02;57.22
67572;SHT31;54397;47.506;19.158;2024-03-06T09:23:33;16.28;56.76
67572;SHT31;54397;47.506;19.158;2024-03-06T09:26:55;16.85;55.63
67572;SHT31;54397;47.506;19.158;2024-03-06T09:30:24;17.12;53.78
67572;SHT31;54397;47.506;19.158;2024-03-06T09:33:48;17.42;54.15
67572;SHT31;54397;47.506;19.158;2024-03-06T09:37:12;17.42;53.16
67572;SHT31;54397;47.506;19.158;2024-03-06T09:40:36;16.49;54.15
67572;SHT31;54397;47.506;19.158;2024-03-06T09:44:00;16.83;53.57
67572;SHT31;54397;47.506;19.158;2024-03-06T09:47:24;17.21;51.56
67572;SHT31;54397;47.506;19.158;2024-03-06T09:50:51;17.59;51.22
67572;SHT31;54397;47.506;19.158;2024-03-06T09:54:16;18.04;50.58
67572;SHT31;54397;47.506;19.158;2024-03-06T09:57:41;17.72;50.38
67572;SHT31;54397;47.506;19.158;2024-03-06T10:01:03;16.94;51.84
67572;SHT31;54397;47.506;19.158;2024-03-06T10:04:33;17.28;50.86
67572;SHT31;54397;47.506;19.158;2024-03-06T10:07:59;17.56;51.50
67572;SHT31;54397;47.506;19.158;2024-03-06T10:11:22;17.80;51.27
67572;SHT31;54397;47.506;19.158;2024-03-06T10:14:55;17.98;50.27
67572;SHT31;54397;47.506;19.158;2024-03-06T10:18:27;18.86;48.35
67572;SHT31;54397;47.506;19.158;2024-03-06T10:21:50;18.79;48.36
67572;SHT31;54397;47.506;19.158;2024-03-06T10:25:12;18.34;48.55
67572;SHT31;54397;47.506;19.158;2024-03-06T10:28:34;19.16;48.05
67572;SHT31;54397;47.506;19.158;2024-03-06T10:32:00;19.59;47.04
67572;SHT31;54397;47.506;19.158;2024-03-06T10:35:24;19.51;46.71
67572;SHT31;54397;47.506;19.158;2024-03-06T10:38:48;18.96;46.84
67572;SHT31;54397;47.506;19.158;2024-03-06T10:42:13;19.21;46.91
67572;SHT31;54397;47.506;19.158;2024-03-06T10:45:49;18.79;47.31
67572;SHT31;54397;47.506;19.158;2024-03-06T10:49:14;18.49;48.24
67572;SHT31;54397;47.506;19.158;2024-03-06T10:52:39;18.40;48.71
67572;SHT31;54397;47.506;19.158;2024-03-06T10:56:03;18.68;47.73
67572;SHT31;54397;47.506;19.158;2024-03-06T10:59:29;18.48;48.68
67572;SHT31;54397;47.506;19.158;2024-03-06T11:02:53;19.10;47.59
67572;SHT31;54397;47.506;19.158;2024-03-06T11:06:18;19.83;46.50
67572;SHT31;54397;47.506;19.158;2024-03-06T11:09:40;19.71;45.74
67572;SHT31;54397;47.506;19.158;2024-03-06T11:13:02;19.79;45.62
67572;SHT31;54397;47.506;19.158;2024-03-06T11:16:30;17.83;48.85
67572;SHT31;54397;47.506;19.158;2024-03-06T11:23:28;17.91;48.49
67572;SHT31;54397;47.506;19.158;2024-03-06T11:30:25;18.17;49.66
67572;SHT31;54397;47.506;19.158;2024-03-06T11:33:53;17.70;49.91
67572;SHT31;54397;47.506;19.158;2024-03-06T11:37:20;17.49;51.05
67572;SHT31;54397;47.506;19.158;2024-03-06T11:40:48;18.00;49.48
67572;SHT31;54397;47.506;19.158;2024-03-06T11:44:17;17.86;49.60
67572;SHT31;54397;47.506;19.158;2024-03-06T11:48:01;17.56;50.60
67572;SHT31;54397;47.506;19.158;2024-03-06T11:51:24;17.48;50.54
67572;SHT31;54397;47.506;19.158;2024-03-06T11:54:47;16.71;52.50
67572;SHT31;54397;47.506;19.158;2024-03-06T11:58:08;17.06;51.56
67572;SHT31;54397;47.506;19.158;2024-03-06T12:01:33;16.60;52.76
67572;SHT31;54397;47.506;19.158;2024-03-06T12:04:55;16.64;52.64
67572;SHT31;54397;47.506;19.158;2024-03-06T12:08:20;16.67;52.89
67572;SHT31;54397;47.506;19.158;2024-03-06T12:11:42;16.01;53.78
67572;SHT31;54397;47.506;19.158;2024-03-06T12:15:09;15.90;54.11
67572;SHT31;54397;47.506;19.158;2024-03-06T12:18:33;16.12;54.96
67572;SHT31;54397;47.506;19.158;2024-03-06T12:21:55;16.25;54.08
67572;SHT31;54397;47.506;19.158;2024-03-06T12:25:25;16.59;53.68
67572;SHT31;54397;47.506;19.158;2024-03-06T12:28:47;16.87;52.35
67572;SHT31;54397;47.506;19.158;2024-03-06T12:32:16;16.92;52.41
67572;SHT31;54397;47.506;19.158;2024-03-06T12:35:39;17.07;52.85
67572;SHT31;54397;47.506;19.158;2024-03-06T12:39:02;17.28;52.58
67572;SHT31;54397;47.506;19.158;2024-03-06T12:42:36;16.87;52.14
67572;SHT31;54397;47.506;19.158;2024-03-06T12:46:00;17.35;52.29
67572;SHT31;54397;47.506;19.158;2024-03-06T12:49:26;17.52;51.12
67572;SHT31;54397;47.506;19.158;2024-03-06T12:52:54;18.01;50.59
67572;SHT31;54397;47.506;19.158;2024-03-06T12:56:17;18.41;49.77
67572;SHT31;54397;47.506;19.158;2024-03-06T12:59:38;18.14;49.95
67572;SHT31;54397;47.506;19.158;2024-03-06T13:03:00;18.31;49.65
67572;SHT31;54397;47.506;19.158;2024-03-06T13:06:22;18.31;49.15
67572;SHT31;54397;47.506;19.158;2024-03-06T13:09:44;18.34;49.61
67572;SHT31;54397;47.506;19.158;2024-03-06T13:13:06;18.47;49.50
67572;SHT31;54397;47.506;19.158;2024-03-06T13:16:33;18.32;49.60
67572;SHT31;54397;47.506;19.158;2024-03-06T13:19:54;18.45;49.51
67572;SHT31;54397;47.506;19.158;2024-03-06T13:23:21;18.44;49.23
67572;SHT31;54397;47.506;19.158;2024-03-06T13:26:43;18.18;49.51
67572;SHT31;54397;47.506;19.158;2024-03-06T13:30:06;18.31;49.00
67572;SHT31;54397;47.506;19.158;2024-03-06T13:33:29;17.94;49.57
67572;SHT31;54397;47.506;19.158;2024-03-06T13:36:51;17.94;49.05
67572;SHT31;54397;47.506;19.158;2024-03-06T13:40:13;17.67;50.33
67572;SHT31;54397;47.506;19.158;2024-03-06T13:43:35;17.29;52.30
67572;SHT31;54397;47.506;19.158;2024-03-06T13:46:56;16.97;53.43
67572;SHT31;54397;47.506;19.158;2024-03-06T13:50:19;16.48;55.76
67572;SHT31;54397;47.506;19.158;2024-03-06T13:53:41;16.64;57.47
67572;SHT31;54397;47.506;19.158;2024-03-06T13:57:11;16.39;60.05
67572;SHT31;54397;47.506;19.158;2024-03-06T14:00:32;16.01;57.91
67572;SHT31;54397;47.506;19.158;2024-03-06T14:03:56;15.84;58.75
67572;SHT31;54397;47.506;19.158;2024-03-06T14:07:17;15.67;58.80
67572;SHT31;54397;47.506;19.158;2024-03-06T14:10:42;15.80;58.96
67572;SHT31;54397;47.506;19.158;2024-03-06T14:14:04;15.78;57.15
67572;SHT31;54397;47.506;19.158;2024-03-06T14:17:26;15.77;56.95
67572;SHT31;54397;47.506;19.158;2024-03-06T14:20:50;15.75;55.85
67572;SHT31;54397;47.506;19.158;2024-03-06T14:24:12;15.84;55.29
67572;SHT31;54397;47.506;19.158;2024-03-06T14:27:33;15.85;55.79
67572;SHT31;54397;47.506;19.158;2024-03-06T14:31:00;16.06;54.99
67572;SHT31;54397;47.506;19.158;2024-03-06T14:34:22;15.63;56.58
67572;SHT31;54397;47.506;19.158;2024-03-06T14:37:45;15.73;56.71
67572;SHT31;54397;47.506;19.158;2024-03-06T14:41:06;15.88;54.72
67572;SHT31;54397;47.506;19.158;2024-03-06T14:44:31;15.93;55.23
67572;SHT31;54397;47.506;19.158;2024-03-06T14:47:55;15.78;53.78
67572;SHT31;54397;47.506;19.158;2024-03-06T14:51:20;15.88;55.74
67572;SHT31;54397;47.506;19.158;2024-03-06T14:54:44;15.95;55.82
67572;SHT31;54397;47.506;19.158;2024-03-06T14:58:07;15.77;56.15
67572;SHT31;54397;47.506;19.158;2024-03-06T15:01:31;15.80;57.51
67572;SHT31;54397;47.506;19.158;2024-03-06T15:04:55;15.88;57.83
67572;SHT31;54397;47.506;19.158;2024-03-06T15:08:17;15.91;57.42
67572;SHT31;54397;47.506;19.158;2024-03-06T15:11:39;15.70;58.39
67572;SHT31;54397;47.506;19.158;2024-03-06T15:15:02;15.80;58.17
67572;SHT31;54397;47.506;19.158;2024-03-06T15:18:25;15.88;56.51
67572;SHT31;54397;47.506;19.158;2024-03-06T15:21:49;15.84;56.75
67572;SHT31;54397;47.506;19.158;2024-03-06T15:25:11;15.87;56.10
67572;SHT31;54397;47.506;19.158;2024-03-06T15:28:33;15.81;56.36
67572;SHT31;54397;47.506;19.158;2024-03-06T15:31:55;15.70;56.39
67572;SHT31;54397;47.506;19.158;2024-03-06T15:35:17;15.73;55.40
67572;SHT31;54397;47.506;19.158;2024-03-06T15:38:44;15.84;53.70
67572;SHT31;54397;47.506;19.158;2024-03-06T15:42:06;15.75;53.70
67572;SHT31;54397;47.506;19.158;2024-03-06T15:45:30;15.66;53.80
67572;SHT31;54397;47.506;19.158;2024-03-06T15:48:52;15.51;53.86
67572;SHT31;54397;47.506;19.158;2024-03-06T15:52:16;15.57;52.96
67572;SHT31;54397;47.506;19.158;2024-03-06T15:55:38;15.51;53.33
67572;SHT31;54397;47.506;19.158;2024-03-06T15:59:00;15.47;54.10
67572;SHT31;54397;47.506;19.158;2024-03-06T16:02:22;15.49;54.06
67572;SHT31;54397;47.506;19.158;2024-03-06T16:05:45;15.39;54.54
67572;SHT31;54397;47.506;19.158;2024-03-06T16:09:13;15.27;55.09
67572;SHT31;54397;47.506;19.158;2024-03-06T16:12:36;15.25;54.94
67572;SHT31;54397;47.506;19.158;2024-03-06T16:15:58;15.27;54.88
67572;SHT31;54397;47.506;19.158;2024-03-06T16:19:19;15.29;54.49
67572;SHT31;54397;47.506;19.158;2024-03-06T16:22:52;15.06;54.60
67572;SHT31;54397;47.506;19.158;2024-03-06T16:26:13;15.06;54.53
67572;SHT31;54397;47.506;19.158;2024-03-06T16:29:38;14.92;54.93
67572;SHT31;54397;47.506;19.158;2024-03-06T16:33:02;14.91;55.71
67572;SHT31;54397;47.506;19.158;2024-03-06T16:36:24;14.92;55.85
67572;SHT31;54397;47.506;19.158;2024-03-06T16:39:48;14.99;56.81
67572;SHT31;54397;47.506;19.158;2024-03-06T16:43:13;15.00;57.11
67572;SHT31;54397;47.506;19.158;2024-03-06T16:46:38;14.88;57.79
67572;SHT31;54397;47.506;19.158;2024-03-06T16:50:01;14.81;59.07
67572;SHT31;54397;47.506;19.158;2024-03-06T16:53:25;14.64;60.02
67572;SHT31;54397;47.506;19.158;2024-03-06T16:56:46;14.58;60.62
67572;SHT31;54397;47.506;19.158;2024-03-06T17:00:09;14.67;60.67
67572;SHT31;54397;47.506;19.158;2024-03-06T17:03:31;14.57;61.60
67572;SHT31;54397;47.506;19.158;2024-03-06T17:06:53;14.52;62.37
67572;SHT31;54397;47.506;19.158;2024-03-06T17:10:20;14.36;62.82
67572;SHT31;54397;47.506;19.158;2024-03-06T17:13:44;14.24;63.75
67572;SHT31;54397;47.506;19.158;2024-03-06T17:17:06;14.26;63.71
67572;SHT31;54397;47.506;19.158;2024-03-06T17:20:28;14.26;63.66
67572;SHT31;54397;47.506;19.158;2024-03-06T17:23:50;14.16;63.72
67572;SHT31;54397;47.506;19.158;2024-03-06T17:27:13;14.19;64.03
67572;SHT31;54397;47.506;19.158;2024-03-06T17:30:37;14.75;74.00
67572;SHT31;54397;47.506;19.158;2024-03-06T17:34:03;15.80;64.14
67572;SHT31;54397;47.506;19.158;2024-03-06T17:37:25;15.63;60.65
67572;SHT31;54397;47.506;19.158;2024-03-06T17:40:48;15.23;61.66
67572;SHT31;54397;47.506;19.158;2024-03-06T17:44:11;14.91;62.62
67572;SHT31;54397;47.506;19.158;2024-03-06T17:47:36;14.50;63.73
67572;SHT31;54397;47.506;19.158;2024-03-06T17:50:57;14.54;63.95
67572;SHT31;54397;47.506;19.158;2024-03-06T17:54:21;14.36;63.98
67572;SHT31;54397;47.506;19.158;2024-03-06T17:57:46;14.20;64.08
67572;SHT31;54397;47.506;19.158;2024-03-06T18:01:08;14.20;64.00
67572;SHT31;54397;47.506;19.158;2024-03-06T18:04:29;13.98;64.33
67572;SHT31;54397;47.506;19.158;2024-03-06T18:07:51;13.96;65.12
67572;SHT31;54397;47.506;19.158;2024-03-06T18:11:13;13.74;66.59
67572;SHT31;54397;47.506;19.158;2024-03-06T18:14:35;13.75;66.91
67572;SHT31;54397;47.506;19.158;2024-03-06T18:17:59;13.96;66.22
67572;SHT31;54397;47.506;19.158;2024-03-06T18:21:23;13.86;66.43
67572;SHT31;54397;47.506;19.158;2024-03-06T18:24:45;13.82;66.36
67572;SHT31;54397;47.506;19.158;2024-03-06T18:28:07;13.76;66.37
67572;SHT31;54397;47.506;19.158;2024-03-06T18:31:31;13.81;66.50
67572;SHT31;54397;47.506;19.158;2024-03-06T18:34:52;13.85;66.91
67572;SHT31;54397;47.506;19.158;2024-03-06T18:38:18;13.61;67.23
67572;SHT31;54397;47.506;19.158;2024-03-06T18:41:40;13.66;67.28
67572;SHT31;54397;47.506;19.158;2024-03-06T18:45:02;13.68;68.10
67572;SHT31;54397;47.506;19.158;2024-03-06T18:48:26;13.76;67.40
67572;SHT31;54397;47.506;19.158;2024-03-06T18:51:48;13.75;67.87
67572;SHT31;54397;47.506;19.158;2024-03-06T18:55:10;13.59;68.02
67572;SHT31;54397;47.506;19.158;2024-03-06T18:58:32;13.61;67.01
67572;SHT31;54397;47.506;19.158;2024-03-06T19:01:56;13.57;67.45
67572;SHT31;54397;47.506;19.158;2024-03-06T19:05:18;13.38;67.68
67572;SHT31;54397;47.506;19.158;2024-03-06T19:08:42;13.28;68.13
67572;SHT31;54397;47.506;19.158;2024-03-06T19:12:04;13.21;68.94
67572;SHT31;54397;47.506;19.158;2024-03-06T19:15:26;13.13;69.08
67572;SHT31;54397;47.506;19.158;2024-03-06T19:18:48;13.10;68.85
67572;SHT31;54397;47.506;19.158;2024-03-06T19:22:10;13.10;68.39
67572;SHT31;54397;47.506;19.158;2024-03-06T19:25:31;13.09;68.88
67572;SHT31;54397;47.506;19.158;2024-03-06T19:28:53;13.02;68.56
67572;SHT31;54397;47.506;19.158;2024-03-06T19:32:15;13.06;68.31
67572;SHT31;54397;47.506;19.158;2024-03-06T19:35:37;12.83;69.99
67572;SHT31;54397;47.506;19.158;2024-03-06T19:39:01;13.00;69.03
67572;SHT31;54397;47.506;19.158;2024-03-06T19:42:24;12.92;69.19
67572;SHT31;54397;47.506;19.158;2024-03-06T19:45:45;12.85;69.84
67572;SHT31;54397;47.506;19.158;2024-03-06T19:49:07;12.93;69.54
67572;SHT31;54397;47.506;19.158;2024-03-06T19:52:34;13.06;68.95
67572;SHT31;54397;47.506;19.158;2024-03-06T19:55:57;12.79;69.28
67572;SHT31;54397;47.506;19.158;2024-03-06T19:59:18;12.68;69.66
67572;SHT31;54397;47.506;19.158;2024-03-06T20:02:40;12.59;70.72
67572;SHT31;54397;47.506;19.158;2024-03-06T20:06:02;12.52;71.03
67572;SHT31;54397;47.506;19.158;2024-03-06T20:09:24;12.55;71.52
67572;SHT31;54397;47.506;19.158;2024-03-06T20:12:50;12.72;70.31
67572;SHT31;54397;47.506;19.158;2024-03-06T20:16:15;12.66;70.95
67572;SHT31;54397;47.506;19.158;2024-03-06T20:19:41;12.55;71.55
67572;SHT31;54397;47.506;19.158;2024-03-06T20:23:05;12.52;71.61
67572;SHT31;54397;47.506;19.158;2024-03-06T20:26:33;12.59;72.51
67572;SHT31;54397;47.506;19.158;2024-03-06T20:29:57;12.51;73.14
67572;SHT31;54397;47.506;19.158;2024-03-06T20:33:20;12.62;72.04
67572;SHT31;54397;47.506;19.158;2024-03-06T20:36:42;12.68;72.66
67572;SHT31;54397;47.506;19.158;2024-03-06T20:40:07;12.65;72.52
67572;SHT31;54397;47.506;19.158;2024-03-06T20:43:31;12.49;71.80
67572;SHT31;54397;47.506;19.158;2024-03-06T20:47:01;12.55;71.78
67572;SHT31;54397;47.506;19.158;2024-03-06T20:50:23;12.63;72.49
67572;SHT31;54397;47.506;19.158;2024-03-06T20:53:45;12.61;71.38
67572;SHT31;54397;47.506;19.158;2024-03-06T20:57:11;12.53;71.66
67572;SHT31;54397;47.506;19.158;2024-03-06T21:00:38;12.41;72.18
67572;SHT31;54397;47.506;19.158;2024-03-06T21:04:02;12.52;70.91
67572;SHT31;54397;47.506;19.158;2024-03-06T21:07:26;12.32;72.28
67572;SHT31;54397;47.506;19.158;2024-03-06T21:10:48;12.17;73.39
67572;SHT31;54397;47.506;19.158;2024-03-06T21:14:10;12.23;71.91
67572;SHT31;54397;47.506;19.158;2024-03-06T21:17:34;12.10;73.64
67572;SHT31;54397;47.506;19.158;2024-03-06T21:20:56;12.03;74.65